Terminal Aerodrome Forecast
Issued by NWS Greer, SC

Home | Current Version | Previous Version | Text Only | Print | Product List | Glossary On
Versions: 1 2 3 4 5 6 7 8 9 10 11 12 13 14 15 16
000
FTUS42 KGSP 181609 AAB
TAFAVL
TAF AMD
KAVL 181609Z 1816/1912 18003KT P6SM OVC005
      TEMPO 1816/1817 SCT005 BKN012
     FM181700 34007G16KT P6SM BKN070
     FM190200 34007KT P6SM BKN250
     FM190600 33006KT P6SM SCT250 WS020/29035KT=

USA.gov is the U.S. government's official web portal to all federal, state and local government web resources and services.